createdAt,value
2018-12-02T00:00:30.076Z,31.13
2018-12-02T00:03:31.413Z,27.17
2018-12-02T00:06:01.873Z,27.83
2018-12-02T00:08:32.084Z,34.37
2018-12-02T00:11:02.268Z,30.90
2018-12-02T00:13:32.485Z,31.40
2018-12-02T00:16:03.340Z,32.80
2018-12-02T00:18:33.803Z,33.43
2018-12-02T00:21:04.239Z,30.70
2018-12-02T00:23:34.404Z,30.70
2018-12-02T00:26:05.217Z,27.30
2018-12-02T00:28:35.932Z,26.13
2018-12-02T00:31:06.830Z,28.60
2018-12-02T00:33:37.383Z,27.73
2018-12-02T00:36:08.337Z,25.20
2018-12-02T00:38:38.907Z,22.10
2018-12-02T00:41:09.153Z,23.53
2018-12-02T00:43:39.715Z,20.00
2018-12-02T00:46:10.773Z,20.00
2018-12-02T00:48:40.912Z,19.00
2018-12-02T00:51:11.189Z,19.70
2018-12-02T00:53:41.652Z,18.57
2018-12-02T00:56:10.860Z,21.03
2018-12-02T00:58:41.572Z,20.30
2018-12-02T01:01:12.068Z,19.50
2018-12-02T01:03:42.358Z,18.90
2018-12-02T01:06:14.120Z,21.00
2018-12-02T01:08:43.796Z,19.00
2018-12-02T01:11:14.200Z,24.03
2018-12-02T01:13:44.712Z,22.57
2018-12-02T01:16:15.883Z,21.60
2018-12-02T01:18:46.180Z,23.77
2018-12-02T01:21:16.672Z,24.37
2018-12-02T01:23:47.181Z,24.50
2018-12-02T01:26:17.677Z,25.23
2018-12-02T01:28:48.393Z,24.87
2018-12-02T01:31:18.908Z,24.20
2018-12-02T01:33:49.778Z,24.37
2018-12-02T01:36:20.949Z,26.17
2018-12-02T01:38:51.449Z,24.70
2018-12-02T01:41:21.864Z,25.90
2018-12-02T01:43:52.345Z,26.90
2018-12-02T01:46:23.824Z,26.23
2018-12-02T01:48:54.456Z,28.77
2018-12-02T01:51:24.552Z,26.40
2018-12-02T01:53:54.761Z,30.53
2018-12-02T01:56:25.604Z,28.40
2018-12-02T01:58:55.877Z,29.80
2018-12-02T02:01:26.386Z,30.30
2018-12-02T02:03:57.076Z,28.37
2018-12-02T02:06:28.119Z,30.87
2018-12-02T02:08:58.505Z,29.27
2018-12-02T02:11:29.074Z,27.30
2018-12-02T02:13:59.292Z,26.50
2018-12-02T02:16:30.113Z,31.10
2018-12-02T02:19:00.448Z,26.63
2018-12-02T02:21:31.046Z,25.10
2018-12-02T02:24:01.609Z,24.20
2018-12-02T02:26:32.973Z,21.63
2018-12-02T02:29:03.477Z,24.00
2018-12-02T02:31:34.351Z,21.40
2018-12-02T02:34:04.663Z,19.10
2018-12-02T02:36:36.088Z,19.33
2018-12-02T02:39:08.206Z,19.47
2018-12-02T02:41:38.687Z,21.47
2018-12-02T02:44:08.902Z,22.37
2018-12-02T02:46:40.292Z,20.60
2018-12-02T02:49:10.426Z,18.40
2018-12-02T02:51:41.133Z,19.80
2018-12-02T02:54:11.422Z,18.70
2018-12-02T02:56:42.446Z,19.90
2018-12-02T02:59:12.934Z,20.47
2018-12-02T03:01:43.399Z,19.40
2018-12-02T03:04:13.717Z,21.13
2018-12-02T03:06:44.737Z,19.27
2018-12-02T03:09:15.508Z,19.80
2018-12-02T03:11:46.111Z,21.90
2018-12-02T03:14:16.642Z,19.40
2018-12-02T03:16:47.630Z,21.03
2018-12-02T03:19:18.013Z,19.90
2018-12-02T03:21:48.758Z,21.73
2018-12-02T03:24:19.452Z,20.70
2018-12-02T03:26:50.746Z,21.00
2018-12-02T03:29:20.972Z,20.30
2018-12-02T03:31:51.613Z,20.57
2018-12-02T03:34:22.088Z,20.63
2018-12-02T03:36:52.854Z,19.77
2018-12-02T03:39:23.327Z,19.73
2018-12-02T03:41:53.676Z,18.63
2018-12-02T03:44:23.929Z,17.10
2018-12-02T03:46:54.913Z,18.20
2018-12-02T03:49:25.307Z,19.07
2018-12-02T03:51:55.931Z,19.67
2018-12-02T03:54:26.232Z,18.70
2018-12-02T03:56:57.771Z,19.80
2018-12-02T03:59:28.183Z,17.60
2018-12-02T04:01:58.639Z,18.13
2018-12-02T04:04:29.306Z,18.07
2018-12-02T04:06:59.972Z,16.67
2018-12-02T04:09:30.311Z,16.50
2018-12-02T04:12:00.584Z,19.47
2018-12-02T04:14:30.912Z,18.93
2018-12-02T04:17:01.697Z,21.37
2018-12-02T04:19:32.206Z,22.63
2018-12-02T04:22:02.756Z,21.10
2018-12-02T04:24:33.487Z,17.03
2018-12-02T04:27:04.253Z,19.53
2018-12-02T04:29:34.580Z,20.87
2018-12-02T04:32:05.120Z,19.30
2018-12-02T04:34:35.388Z,20.30
2018-12-02T04:37:05.893Z,21.77
2018-12-02T04:39:36.051Z,20.67
2018-12-02T04:42:06.593Z,26.53
2018-12-02T04:44:36.909Z,24.77
2018-12-02T04:47:08.059Z,18.87
2018-12-02T04:49:38.338Z,24.03
2018-12-02T04:52:08.836Z,21.97
2018-12-02T04:54:39.320Z,18.77
2018-12-02T04:57:10.757Z,19.60
2018-12-02T04:59:41.401Z,15.10
2018-12-02T05:02:11.607Z,15.50
2018-12-02T05:04:41.320Z,16.50
2018-12-02T05:07:11.973Z,14.20
2018-12-02T05:09:41.614Z,15.27
2018-12-02T05:12:11.353Z,16.20
2018-12-02T05:14:41.204Z,14.30
2018-12-02T05:17:11.042Z,17.77
2018-12-02T05:19:40.947Z,15.27
2018-12-02T05:22:10.714Z,17.80
2018-12-02T05:24:40.509Z,20.80
2018-12-02T05:27:10.248Z,19.60
2018-12-02T05:29:40.008Z,18.10
2018-12-02T05:32:09.854Z,20.97
2018-12-02T05:34:39.584Z,21.77
2018-12-02T05:37:09.351Z,19.50
2018-12-02T05:39:39.129Z,22.03
2018-12-02T05:42:13.921Z,22.37
2018-12-02T05:44:43.626Z,21.70
2018-12-02T05:47:13.916Z,26.57
2018-12-02T05:49:43.633Z,25.13
2018-12-02T05:52:13.471Z,31.57
2018-12-02T05:54:43.300Z,27.00
2018-12-02T05:57:13.069Z,30.57
2018-12-02T05:59:42.867Z,36.20
2018-12-02T06:02:12.529Z,30.13
2018-12-02T06:04:42.309Z,28.30
2018-12-02T06:07:12.152Z,30.83
2018-12-02T06:09:41.766Z,34.67
2018-12-02T06:12:11.592Z,29.60
2018-12-02T06:14:41.436Z,25.40
2018-12-02T06:17:11.206Z,27.73
2018-12-02T06:19:41.017Z,27.10
2018-12-02T06:22:10.765Z,28.30
2018-12-02T06:24:40.549Z,24.37
2018-12-02T06:27:11.075Z,27.00
2018-12-02T06:29:40.839Z,23.70
2018-12-02T06:32:10.614Z,25.33
2018-12-02T06:34:40.568Z,25.70
2018-12-02T06:37:10.424Z,26.00
2018-12-02T06:39:40.714Z,26.53
2018-12-02T06:42:11.086Z,28.63
2018-12-02T06:44:41.713Z,33.00
2018-12-02T06:47:13.175Z,34.70
2018-12-02T06:49:43.234Z,34.43
2018-12-02T06:52:13.044Z,29.90
2018-12-02T06:54:47.825Z,33.17
2018-12-02T06:57:25.467Z,29.43
2018-12-02T07:00:04.657Z,27.50
2018-12-02T07:02:52.197Z,35.20
2018-12-02T07:05:28.202Z,55.43
2018-12-02T07:11:46.070Z,56.07
2018-12-02T07:14:16.933Z,71.47
2018-12-02T07:16:46.765Z,56.50
2018-12-02T07:19:20.934Z,65.80
2018-12-02T07:21:56.872Z,70.53
2018-12-02T07:24:29.372Z,58.97
2018-12-02T07:27:01.989Z,48.70
2018-12-02T07:29:33.187Z,47.57
2018-12-02T07:32:03.493Z,49.17
2018-12-02T07:34:33.399Z,47.90
2018-12-02T07:37:07.909Z,50.63
2018-12-02T07:40:51.083Z,48.10
2018-12-02T07:43:21.015Z,43.50
2018-12-02T07:45:50.706Z,46.40
2018-12-02T07:48:20.389Z,37.33
2018-12-02T07:50:50.226Z,41.40
2018-12-02T07:53:20.594Z,42.97
2018-12-02T07:55:50.539Z,46.27
2018-12-02T07:58:20.279Z,53.77
2018-12-02T08:00:50.072Z,48.50
2018-12-02T08:03:19.891Z,38.80
2018-12-02T08:05:49.615Z,37.17
2018-12-02T08:08:19.426Z,34.90
2018-12-02T08:10:49.194Z,36.13
2018-12-02T08:13:19.053Z,33.47
2018-12-02T08:15:48.870Z,33.20
2018-12-02T08:18:18.625Z,34.47
2018-12-02T08:20:48.411Z,40.10
2018-12-02T08:23:18.279Z,29.90
2018-12-02T08:25:48.300Z,28.73
2018-12-02T08:28:18.155Z,29.67
2018-12-02T08:30:47.941Z,28.10
2018-12-02T08:33:17.802Z,24.13
2018-12-02T08:35:47.643Z,23.13
2018-12-02T08:38:17.729Z,23.70
2018-12-02T08:40:47.621Z,24.10
2018-12-02T08:43:17.374Z,23.73
2018-12-02T08:45:47.115Z,24.20
2018-12-02T08:48:17.046Z,26.30
2018-12-02T08:50:46.966Z,27.23
2018-12-02T08:53:16.885Z,27.43
2018-12-02T08:55:46.679Z,26.83
2018-12-02T08:58:16.421Z,25.87
2018-12-02T09:00:46.261Z,29.83
2018-12-02T09:03:16.087Z,29.87
2018-12-02T09:05:46.034Z,29.43
2018-12-02T09:08:15.986Z,30.37
2018-12-02T09:10:46.404Z,26.87
2018-12-02T09:13:16.068Z,27.70
2018-12-02T09:15:46.036Z,24.07
2018-12-02T09:18:16.416Z,25.50
2018-12-02T09:20:46.920Z,23.80
2018-12-02T09:23:17.337Z,23.33
2018-12-02T09:25:47.652Z,24.27
2018-12-02T09:28:19.056Z,24.00
2018-12-02T09:30:49.133Z,24.40
2018-12-02T09:33:19.301Z,20.73
2018-12-02T09:35:49.871Z,26.27
2018-12-02T09:38:21.158Z,18.80
2018-12-02T09:40:51.497Z,18.17
2018-12-02T09:43:21.962Z,17.80
2018-12-02T09:45:52.509Z,19.53
2018-12-02T09:48:22.773Z,18.20
2018-12-02T09:50:53.275Z,16.50
2018-12-02T09:53:23.761Z,18.77
2018-12-02T09:55:55.105Z,22.20
2018-12-02T09:58:28.312Z,16.53
2018-12-02T10:01:00.761Z,20.93
2018-12-02T10:03:31.088Z,26.13
2018-12-02T10:06:01.661Z,20.30
2018-12-02T10:08:32.403Z,23.10
2018-12-02T10:11:02.801Z,17.50
2018-12-02T10:13:33.199Z,17.13
2018-12-02T10:16:03.548Z,15.93
2018-12-02T10:18:34.520Z,16.00
2018-12-02T10:21:04.758Z,18.07
2018-12-02T10:23:34.946Z,19.97
2018-12-02T10:26:05.315Z,19.20
2018-12-02T10:28:36.331Z,15.30
2018-12-02T10:31:06.824Z,17.53
2018-12-02T10:33:37.263Z,17.03
2018-12-02T10:36:07.697Z,29.03
2018-12-02T10:38:41.959Z,18.10
2018-12-02T10:41:12.342Z,20.40
2018-12-02T10:43:42.928Z,20.67
2018-12-02T10:46:13.506Z,21.67
2018-12-02T10:48:44.487Z,19.50
2018-12-02T10:51:14.818Z,23.57
2018-12-02T10:53:45.123Z,20.90
2018-12-02T10:56:15.617Z,23.37
2018-12-02T10:58:49.478Z,22.90
2018-12-02T11:01:20.319Z,17.93
2018-12-02T11:03:50.537Z,20.80
2018-12-02T11:06:20.789Z,15.10
2018-12-02T11:08:51.623Z,15.13
2018-12-02T11:11:22.047Z,8.70
2018-12-02T11:13:52.505Z,10.93
2018-12-02T11:16:23.028Z,11.87
2018-12-02T11:18:53.837Z,12.43
2018-12-02T11:21:24.606Z,13.10
2018-12-02T11:23:55.098Z,12.57
2018-12-02T11:26:25.564Z,11.50
2018-12-02T11:28:56.805Z,12.40
2018-12-02T11:31:27.126Z,15.40
2018-12-02T11:33:57.625Z,14.43
2018-12-02T11:36:28.091Z,10.63
2018-12-02T11:39:00.476Z,12.73
2018-12-02T11:41:31.128Z,13.33
2018-12-02T11:44:01.477Z,16.20
2018-12-02T11:46:31.725Z,15.03
2018-12-02T11:49:02.741Z,14.80
2018-12-02T11:51:33.166Z,15.83
2018-12-02T11:54:03.491Z,13.07
2018-12-02T11:56:33.941Z,12.83
2018-12-02T11:59:09.732Z,17.00
2018-12-02T12:01:40.309Z,14.10
2018-12-02T12:04:10.752Z,14.03
2018-12-02T12:06:41.299Z,15.63
2018-12-02T12:09:12.392Z,20.07
2018-12-02T12:11:42.728Z,18.67
2018-12-02T12:14:13.247Z,16.07
2018-12-02T12:16:43.656Z,17.70
2018-12-02T12:19:14.492Z,20.60
2018-12-02T12:21:45.124Z,24.70
2018-12-02T12:24:15.609Z,25.07
2018-12-02T12:26:46.328Z,20.43
2018-12-02T12:29:17.538Z,24.33
2018-12-02T12:31:48.050Z,18.60
2018-12-02T12:34:18.792Z,17.10
2018-12-02T12:36:49.254Z,17.23
2018-12-02T12:39:21.464Z,18.83
2018-12-02T12:41:51.956Z,17.70
2018-12-02T12:44:22.476Z,17.20
2018-12-02T12:46:53.193Z,15.47
2018-12-02T12:49:23.991Z,15.13
2018-12-02T12:51:54.281Z,19.53
2018-12-02T12:54:25.176Z,18.90
2018-12-02T12:56:55.765Z,17.07
2018-12-02T12:59:27.794Z,29.23
2018-12-02T13:02:00.096Z,21.53
2018-12-02T13:04:29.569Z,21.37
2018-12-02T13:07:00.150Z,18.23
2018-12-02T13:09:31.941Z,20.17
2018-12-02T13:12:02.865Z,31.70
2018-12-02T13:14:35.317Z,28.30
2018-12-02T13:17:06.191Z,19.47
2018-12-02T13:19:37.741Z,30.30
2018-12-02T13:22:08.654Z,34.03
2018-12-02T13:24:40.476Z,25.40
2018-12-02T13:27:11.141Z,35.77
2018-12-02T13:29:42.842Z,35.90
2018-12-02T13:32:13.208Z,28.40
2018-12-02T13:34:42.988Z,36.50
2018-12-02T13:37:12.803Z,33.03
2018-12-02T13:39:44.017Z,32.40
2018-12-02T13:42:20.177Z,35.33
2018-12-02T13:44:50.637Z,40.00
2018-12-02T13:47:20.676Z,29.20
2018-12-02T13:49:51.181Z,40.10
2018-12-02T13:52:21.018Z,47.60
2018-12-02T13:54:50.698Z,57.23
2018-12-02T13:57:20.555Z,68.67
2018-12-02T13:59:50.394Z,57.63
2018-12-02T14:02:20.213Z,63.37
2018-12-02T14:04:50.109Z,52.67
2018-12-02T14:07:19.802Z,57.97
2018-12-02T14:09:49.578Z,65.70
2018-12-02T14:12:19.477Z,66.70
2018-12-02T14:14:49.835Z,63.27
2018-12-02T14:17:22.300Z,66.67
2018-12-02T14:19:52.834Z,68.93
2018-12-02T14:22:22.722Z,67.97
2018-12-02T14:24:52.785Z,57.03
2018-12-02T14:27:22.633Z,61.53
2018-12-02T14:29:56.101Z,52.13
2018-12-02T14:32:27.118Z,61.37
2018-12-02T14:34:56.975Z,69.30
2018-12-02T14:37:26.800Z,63.47
2018-12-02T14:39:57.488Z,69.90
2018-12-02T14:42:27.242Z,68.87
2018-12-02T14:44:57.045Z,72.07
2018-12-02T14:47:26.807Z,65.37
2018-12-02T14:49:56.536Z,68.43
2018-12-02T14:52:26.331Z,64.97
2018-12-02T14:54:56.023Z,50.10
2018-12-02T14:57:25.805Z,44.90
2018-12-02T14:59:55.548Z,41.30
2018-12-02T15:02:25.401Z,41.37
2018-12-02T15:04:55.277Z,47.57
2018-12-02T15:07:25.134Z,47.40
2018-12-02T15:09:54.883Z,52.43
2018-12-02T15:12:24.692Z,84.17
2018-12-02T15:14:54.537Z,81.50
2018-12-02T15:17:24.366Z,79.70
2018-12-02T15:19:54.182Z,65.60
2018-12-02T15:22:24.092Z,62.40
2018-12-02T15:24:53.954Z,58.07
2018-12-02T15:27:23.810Z,60.00
2018-12-02T15:29:53.681Z,58.13
2018-12-02T15:32:23.503Z,68.90
2018-12-02T15:34:53.296Z,62.63
2018-12-02T15:37:23.139Z,58.90
2018-12-02T15:39:52.976Z,44.23
2018-12-02T15:42:23.289Z,34.33
2018-12-02T15:44:53.150Z,36.90
2018-12-02T15:47:23.003Z,36.40
2018-12-02T15:49:52.770Z,44.77
2018-12-02T15:52:22.537Z,44.50
2018-12-02T15:54:52.338Z,46.37
2018-12-02T15:57:22.093Z,49.07
2018-12-02T15:59:52.007Z,51.20
2018-12-02T16:02:21.906Z,57.33
2018-12-02T16:04:51.897Z,52.40
2018-12-02T16:07:22.116Z,43.67
2018-12-02T16:09:52.043Z,42.00
2018-12-02T16:12:21.853Z,38.60
2018-12-02T16:14:51.868Z,36.17
2018-12-02T16:17:21.582Z,34.83
2018-12-02T16:19:51.456Z,33.17
2018-12-02T16:22:21.273Z,29.00
2018-12-02T16:24:51.093Z,25.93
2018-12-02T16:27:20.872Z,23.43
2018-12-02T16:29:50.653Z,31.60
2018-12-02T16:32:20.496Z,55.67
2018-12-02T16:34:50.264Z,37.57
2018-12-02T16:37:20.114Z,64.33
2018-12-02T16:39:49.944Z,42.60
2018-12-02T16:42:19.810Z,64.33
2018-12-02T16:44:49.911Z,39.00
2018-12-02T16:47:19.769Z,52.60
2018-12-02T16:49:49.495Z,92.87
2018-12-02T16:52:19.252Z,80.20
2018-12-02T16:54:49.157Z,68.97
2018-12-02T16:57:19.237Z,57.30
2018-12-02T16:59:49.156Z,43.03
2018-12-02T17:02:19.098Z,29.60
2018-12-02T17:04:48.863Z,56.10
2018-12-02T17:07:18.803Z,62.77
2018-12-02T17:09:48.692Z,49.30
2018-12-02T17:12:18.476Z,49.60
2018-12-02T17:14:48.230Z,46.67
2018-12-02T17:17:17.965Z,29.70
2018-12-02T17:19:47.845Z,23.83
2018-12-02T17:22:17.724Z,31.33
2018-12-02T17:24:47.469Z,32.57
2018-12-02T17:27:17.155Z,19.40
2018-12-02T17:29:47.105Z,33.67
2018-12-02T17:32:16.906Z,27.90
2018-12-02T17:34:46.751Z,25.50
2018-12-02T17:37:16.556Z,30.20
2018-12-02T17:39:49.268Z,35.40
2018-12-02T17:42:18.989Z,36.60
2018-12-02T17:44:48.888Z,36.87
2018-12-02T17:47:18.768Z,51.73
2018-12-02T17:49:49.647Z,44.80
2018-12-02T17:52:19.478Z,39.37
2018-12-02T17:54:49.320Z,34.00
2018-12-02T17:57:18.955Z,43.10
2018-12-02T17:59:49.080Z,44.73
2018-12-02T18:02:18.859Z,58.97
2018-12-02T18:04:48.726Z,45.10
2018-12-02T18:07:18.614Z,36.87
2018-12-02T18:09:48.238Z,36.80
2018-12-02T18:12:18.896Z,35.03
2018-12-02T18:14:49.443Z,28.07
2018-12-02T18:17:19.140Z,32.70
2018-12-02T18:19:50.392Z,42.67
2018-12-02T18:22:20.217Z,32.10
2018-12-02T18:24:50.097Z,33.83
2018-12-02T18:27:19.919Z,41.47
2018-12-02T18:29:50.846Z,42.27
2018-12-02T18:32:20.759Z,38.20
2018-12-02T18:34:50.616Z,35.13
2018-12-02T18:37:20.451Z,39.83
2018-12-02T18:39:50.818Z,62.50
2018-12-02T18:42:20.824Z,49.87
2018-12-02T18:44:50.712Z,41.50
2018-12-02T18:47:21.063Z,36.90
2018-12-02T18:49:52.060Z,34.70
2018-12-02T18:52:21.894Z,34.57
2018-12-02T18:54:51.807Z,38.20
2018-12-02T18:57:22.423Z,37.77
2018-12-02T18:59:52.868Z,42.57
2018-12-02T19:02:22.680Z,36.30
2018-12-02T19:04:52.384Z,38.97
2018-12-02T19:07:22.230Z,41.93
2018-12-02T19:09:51.801Z,39.03
2018-12-02T19:12:21.721Z,38.50
2018-12-02T19:14:51.669Z,41.10
2018-12-02T19:17:21.521Z,42.83
2018-12-02T19:19:51.269Z,40.10
2018-12-02T19:22:21.092Z,37.70
2018-12-02T19:24:51.010Z,31.80
2018-12-02T19:27:20.801Z,33.63
2018-12-02T19:29:50.589Z,36.30
2018-12-02T19:32:20.545Z,36.30
2018-12-02T19:34:50.404Z,43.37
2018-12-02T19:37:20.265Z,55.87
2018-12-02T19:39:50.067Z,56.70
2018-12-02T19:42:19.930Z,48.80
2018-12-02T19:44:49.912Z,44.77
2018-12-02T19:47:19.786Z,47.63
2018-12-02T19:49:49.800Z,42.50
2018-12-02T19:52:19.643Z,47.83
2018-12-02T19:54:49.487Z,51.53
2018-12-02T19:57:19.342Z,46.97
2018-12-02T19:59:49.166Z,43.00
2018-12-02T20:02:18.924Z,41.27
2018-12-02T20:04:48.892Z,42.27
2018-12-02T20:07:18.767Z,48.17
2018-12-02T20:09:48.622Z,39.90
2018-12-02T20:12:18.373Z,36.77
2018-12-02T20:14:48.180Z,35.80
2018-12-02T20:17:18.047Z,38.70
2018-12-02T20:19:52.960Z,32.23
2018-12-02T20:22:22.688Z,27.77
2018-12-02T20:24:52.615Z,30.10
2018-12-02T20:27:22.317Z,25.67
2018-12-02T20:29:52.933Z,21.37
2018-12-02T20:32:22.678Z,19.60
2018-12-02T20:34:52.517Z,23.23
2018-12-02T20:37:22.352Z,26.97
2018-12-02T20:39:52.214Z,26.77
2018-12-02T20:42:22.449Z,21.50
2018-12-02T20:44:52.882Z,25.90
2018-12-02T20:47:22.047Z,31.53
2018-12-02T20:49:52.178Z,28.20
2018-12-02T20:52:22.113Z,24.40
2018-12-02T20:54:51.997Z,18.67
2018-12-02T20:57:21.809Z,20.53
2018-12-02T20:59:51.712Z,19.23
2018-12-02T21:02:21.357Z,21.50
2018-12-02T21:04:51.189Z,33.70
2018-12-02T21:07:20.925Z,38.27
2018-12-02T21:09:50.684Z,38.63
2018-12-02T21:12:20.385Z,26.23
2018-12-02T21:14:50.227Z,21.57
2018-12-02T21:17:20.024Z,19.93
2018-12-02T21:19:49.769Z,22.23
2018-12-02T21:22:19.508Z,22.90
2018-12-02T21:24:49.440Z,32.17
2018-12-02T21:27:19.273Z,30.13
2018-12-02T21:29:49.010Z,29.80
2018-12-02T21:32:22.506Z,29.37
2018-12-02T21:34:50.353Z,32.40
2018-12-02T21:37:20.859Z,33.83
2018-12-02T21:39:51.681Z,29.70
2018-12-02T21:42:21.596Z,30.50
2018-12-02T21:44:51.422Z,34.90
2018-12-02T21:47:21.465Z,34.03
2018-12-02T21:49:52.920Z,34.33
2018-12-02T21:52:23.851Z,39.17
2018-12-02T21:54:54.039Z,36.03
2018-12-02T21:57:24.858Z,28.37
2018-12-02T21:59:55.420Z,35.10
2018-12-02T22:02:25.833Z,36.67
2018-12-02T22:04:56.383Z,35.77
2018-12-02T22:07:26.557Z,32.97
2018-12-02T22:09:57.538Z,38.40
2018-12-02T22:12:27.970Z,41.50
2018-12-02T22:14:57.875Z,30.07
2018-12-02T22:17:29.104Z,31.87
2018-12-02T22:20:00.965Z,30.60
2018-12-02T22:22:31.698Z,32.30
2018-12-02T22:25:02.154Z,34.40
2018-12-02T22:27:32.783Z,35.97
2018-12-02T22:30:03.783Z,33.33
2018-12-02T22:32:34.324Z,33.23
2018-12-02T22:35:04.946Z,34.10
2018-12-02T22:37:35.292Z,33.03
2018-12-02T22:40:08.549Z,35.60
2018-12-02T22:42:39.135Z,33.53
2018-12-02T22:45:12.372Z,33.63
2018-12-02T22:47:42.636Z,30.00
2018-12-02T22:50:17.361Z,32.40
2018-12-02T22:52:49.432Z,25.77
2018-12-02T22:55:19.672Z,25.97
2018-12-02T22:57:50.222Z,30.17
2018-12-02T23:00:33.675Z,28.40
2018-12-02T23:03:05.450Z,28.40
2018-12-02T23:05:36.098Z,31.43
2018-12-02T23:08:06.637Z,30.57
2018-12-02T23:10:37.083Z,32.00
2018-12-02T23:13:08.159Z,35.53
2018-12-02T23:15:38.690Z,35.00
2018-12-02T23:18:10.133Z,33.40
2018-12-02T23:20:40.258Z,30.60
2018-12-02T23:23:10.396Z,31.00
2018-12-02T23:25:40.950Z,28.77
2018-12-02T23:28:11.604Z,24.00
2018-12-02T23:30:42.480Z,20.67
2018-12-02T23:33:13.180Z,21.77
2018-12-02T23:35:43.541Z,21.40
2018-12-02T23:38:14.156Z,20.00
2018-12-02T23:40:44.769Z,17.47
2018-12-02T23:43:14.668Z,15.93
2018-12-02T23:45:45.065Z,17.37
2018-12-02T23:48:14.256Z,14.60
2018-12-02T23:50:44.110Z,14.03
2018-12-02T23:53:14.342Z,12.50
2018-12-02T23:55:44.254Z,12.03
2018-12-02T23:58:14.087Z,10.50
